sensor_id;sensor_type;location;lat;lon;timestamp;P1;durP1;ratioP1;P2;durP2;ratioP2
65896;SDS011;52677;50.898;10.854;2022-09-21T00:01:32;2.95;;;1.88;;
65896;SDS011;52677;50.898;10.854;2022-09-21T00:03:32;2.42;;;1.92;;
65896;SDS011;52677;50.898;10.854;2022-09-21T00:05:33;2.70;;;1.92;;
65896;SDS011;52677;50.898;10.854;2022-09-21T00:07:34;4.72;;;2.83;;
65896;SDS011;52677;50.898;10.854;2022-09-21T00:09:34;6.38;;;3.05;;
65896;SDS011;52677;50.898;10.854;2022-09-21T00:11:35;2.50;;;1.65;;
65896;SDS011;52677;50.898;10.854;2022-09-21T00:13:35;3.20;;;1.77;;
65896;SDS011;52677;50.898;10.854;2022-09-21T00:15:38;2.90;;;1.70;;
65896;SDS011;52677;50.898;10.854;2022-09-21T00:17:38;2.87;;;1.80;;
65896;SDS011;52677;50.898;10.854;2022-09-21T00:19:38;3.20;;;2.10;;
65896;SDS011;52677;50.898;10.854;2022-09-21T00:21:39;5.03;;;1.70;;
65896;SDS011;52677;50.898;10.854;2022-09-21T00:23:40;4.13;;;2.20;;
65896;SDS011;52677;50.898;10.854;2022-09-21T00:25:40;3.53;;;2.10;;
65896;SDS011;52677;50.898;10.854;2022-09-21T00:27:41;2.97;;;1.80;;
65896;SDS011;52677;50.898;10.854;2022-09-21T00:29:41;2.55;;;1.95;;
65896;SDS011;52677;50.898;10.854;2022-09-21T00:31:42;3.63;;;2.30;;
65896;SDS011;52677;50.898;10.854;2022-09-21T00:33:42;2.97;;;2.08;;
65896;SDS011;52677;50.898;10.854;2022-09-21T00:35:42;2.30;;;1.80;;
65896;SDS011;52677;50.898;10.854;2022-09-21T00:37:43;2.75;;;2.10;;
65896;SDS011;52677;50.898;10.854;2022-09-21T00:39:43;3.97;;;1.63;;
65896;SDS011;52677;50.898;10.854;2022-09-21T00:41:44;2.22;;;1.67;;
65896;SDS011;52677;50.898;10.854;2022-09-21T00:43:45;5.32;;;1.73;;
65896;SDS011;52677;50.898;10.854;2022-09-21T00:45:47;5.32;;;1.80;;
65896;SDS011;52677;50.898;10.854;2022-09-21T00:47:50;2.28;;;1.80;;
65896;SDS011;52677;50.898;10.854;2022-09-21T00:49:52;4.15;;;1.80;;
65896;SDS011;52677;50.898;10.854;2022-09-21T00:51:56;2.90;;;2.00;;
65896;SDS011;52677;50.898;10.854;2022-09-21T00:54:03;5.28;;;2.15;;
65896;SDS011;52677;50.898;10.854;2022-09-21T00:56:08;4.15;;;2.15;;
65896;SDS011;52677;50.898;10.854;2022-09-21T00:58:13;2.00;;;1.70;;
65896;SDS011;52677;50.898;10.854;2022-09-21T01:00:17;4.13;;;2.35;;
65896;SDS011;52677;50.898;10.854;2022-09-21T01:02:18;3.58;;;2.00;;
65896;SDS011;52677;50.898;10.854;2022-09-21T01:04:18;4.40;;;2.30;;
65896;SDS011;52677;50.898;10.854;2022-09-21T01:06:20;3.70;;;2.10;;
65896;SDS011;52677;50.898;10.854;2022-09-21T01:08:21;3.38;;;2.00;;
65896;SDS011;52677;50.898;10.854;2022-09-21T01:10:25;2.50;;;1.90;;
65896;SDS011;52677;50.898;10.854;2022-09-21T01:17:13;2.67;;;1.70;;
65896;SDS011;52677;50.898;10.854;2022-09-21T01:26:00;2.35;;;1.88;;
65896;SDS011;52677;50.898;10.854;2022-09-21T01:28:16;3.08;;;1.85;;
65896;SDS011;52677;50.898;10.854;2022-09-21T01:30:29;3.63;;;2.00;;
65896;SDS011;52677;50.898;10.854;2022-09-21T01:32:44;2.30;;;1.70;;
65896;SDS011;52677;50.898;10.854;2022-09-21T01:34:51;3.92;;;1.70;;
65896;SDS011;52677;50.898;10.854;2022-09-21T01:36:56;5.63;;;1.90;;
65896;SDS011;52677;50.898;10.854;2022-09-21T01:39:01;2.40;;;1.67;;
65896;SDS011;52677;50.898;10.854;2022-09-21T01:41:06;2.05;;;1.70;;
65896;SDS011;52677;50.898;10.854;2022-09-21T01:43:12;2.45;;;1.77;;
65896;SDS011;52677;50.898;10.854;2022-09-21T01:45:19;2.15;;;1.60;;
65896;SDS011;52677;50.898;10.854;2022-09-21T01:47:26;5.38;;;1.98;;
65896;SDS011;52677;50.898;10.854;2022-09-21T01:49:31;3.42;;;1.60;;
65896;SDS011;52677;50.898;10.854;2022-09-21T01:51:35;2.03;;;1.50;;
65896;SDS011;52677;50.898;10.854;2022-09-21T01:55:52;2.65;;;1.50;;
65896;SDS011;52677;50.898;10.854;2022-09-21T02:00:19;2.90;;;1.52;;
65896;SDS011;52677;50.898;10.854;2022-09-21T02:02:21;2.00;;;1.67;;
65896;SDS011;52677;50.898;10.854;2022-09-21T02:04:30;2.85;;;1.48;;
65896;SDS011;52677;50.898;10.854;2022-09-21T02:06:34;2.30;;;1.63;;
65896;SDS011;52677;50.898;10.854;2022-09-21T02:08:36;2.40;;;1.52;;
65896;SDS011;52677;50.898;10.854;2022-09-21T02:10:46;2.53;;;1.42;;
65896;SDS011;52677;50.898;10.854;2022-09-21T02:12:51;2.38;;;1.90;;
65896;SDS011;52677;50.898;10.854;2022-09-21T02:14:54;2.47;;;1.50;;
65896;SDS011;52677;50.898;10.854;2022-09-21T02:21:43;1.92;;;1.30;;
65896;SDS011;52677;50.898;10.854;2022-09-21T02:24:43;2.05;;;1.40;;
65896;SDS011;52677;50.898;10.854;2022-09-21T02:28:48;2.58;;;1.80;;
65896;SDS011;52677;50.898;10.854;2022-09-21T02:30:55;3.13;;;1.60;;
65896;SDS011;52677;50.898;10.854;2022-09-21T02:35:15;4.28;;;2.13;;
65896;SDS011;52677;50.898;10.854;2022-09-21T02:39:58;3.35;;;1.65;;
65896;SDS011;52677;50.898;10.854;2022-09-21T02:42:07;4.43;;;2.00;;
65896;SDS011;52677;50.898;10.854;2022-09-21T02:44:31;2.78;;;1.73;;
65896;SDS011;52677;50.898;10.854;2022-09-21T02:46:53;2.20;;;1.60;;
65896;SDS011;52677;50.898;10.854;2022-09-21T02:48:59;3.20;;;1.83;;
65896;SDS011;52677;50.898;10.854;2022-09-21T02:51:09;4.05;;;2.05;;
65896;SDS011;52677;50.898;10.854;2022-09-21T02:53:14;2.88;;;1.80;;
65896;SDS011;52677;50.898;10.854;2022-09-21T02:55:19;4.97;;;2.53;;
65896;SDS011;52677;50.898;10.854;2022-09-21T02:57:21;2.45;;;1.75;;
65896;SDS011;52677;50.898;10.854;2022-09-21T02:59:22;2.53;;;1.63;;
65896;SDS011;52677;50.898;10.854;2022-09-21T03:01:23;3.28;;;2.00;;
65896;SDS011;52677;50.898;10.854;2022-09-21T03:03:25;3.15;;;2.03;;
65896;SDS011;52677;50.898;10.854;2022-09-21T03:05:25;3.03;;;1.70;;
65896;SDS011;52677;50.898;10.854;2022-09-21T03:07:27;1.92;;;1.52;;
65896;SDS011;52677;50.898;10.854;2022-09-21T03:09:27;1.98;;;1.77;;
65896;SDS011;52677;50.898;10.854;2022-09-21T03:11:28;2.92;;;1.60;;
65896;SDS011;52677;50.898;10.854;2022-09-21T03:13:28;2.05;;;1.67;;
65896;SDS011;52677;50.898;10.854;2022-09-21T03:15:29;3.05;;;1.60;;
65896;SDS011;52677;50.898;10.854;2022-09-21T03:17:30;5.60;;;2.53;;
65896;SDS011;52677;50.898;10.854;2022-09-21T03:19:31;2.85;;;1.90;;
65896;SDS011;52677;50.898;10.854;2022-09-21T03:21:31;2.97;;;1.73;;
65896;SDS011;52677;50.898;10.854;2022-09-21T03:23:31;2.58;;;1.60;;
65896;SDS011;52677;50.898;10.854;2022-09-21T03:25:32;2.20;;;1.60;;
65896;SDS011;52677;50.898;10.854;2022-09-21T03:27:33;3.33;;;2.25;;
65896;SDS011;52677;50.898;10.854;2022-09-21T03:29:33;2.00;;;1.50;;
65896;SDS011;52677;50.898;10.854;2022-09-21T03:31:33;3.95;;;1.85;;
65896;SDS011;52677;50.898;10.854;2022-09-21T03:33:34;4.22;;;1.90;;
65896;SDS011;52677;50.898;10.854;2022-09-21T03:35:34;2.15;;;1.58;;
65896;SDS011;52677;50.898;10.854;2022-09-21T03:37:34;4.20;;;1.77;;
65896;SDS011;52677;50.898;10.854;2022-09-21T03:39:35;3.03;;;1.95;;
65896;SDS011;52677;50.898;10.854;2022-09-21T03:41:35;3.10;;;1.73;;
65896;SDS011;52677;50.898;10.854;2022-09-21T03:43:36;2.45;;;1.70;;
65896;SDS011;52677;50.898;10.854;2022-09-21T03:45:36;3.85;;;1.77;;
65896;SDS011;52677;50.898;10.854;2022-09-21T03:47:40;4.70;;;1.50;;
65896;SDS011;52677;50.898;10.854;2022-09-21T03:49:41;6.20;;;1.67;;
65896;SDS011;52677;50.898;10.854;2022-09-21T03:51:41;1.90;;;1.67;;
65896;SDS011;52677;50.898;10.854;2022-09-21T03:53:42;2.00;;;1.40;;
65896;SDS011;52677;50.898;10.854;2022-09-21T03:55:42;4.70;;;1.77;;
65896;SDS011;52677;50.898;10.854;2022-09-21T03:57:43;2.05;;;1.65;;
65896;SDS011;52677;50.898;10.854;2022-09-21T03:59:43;5.68;;;1.73;;
65896;SDS011;52677;50.898;10.854;2022-09-21T04:01:43;4.18;;;1.90;;
65896;SDS011;52677;50.898;10.854;2022-09-21T04:03:43;2.40;;;1.60;;
65896;SDS011;52677;50.898;10.854;2022-09-21T04:05:44;5.75;;;1.98;;
65896;SDS011;52677;50.898;10.854;2022-09-21T04:07:44;2.83;;;1.60;;
65896;SDS011;52677;50.898;10.854;2022-09-21T04:09:44;5.05;;;2.35;;
65896;SDS011;52677;50.898;10.854;2022-09-21T04:11:45;2.33;;;1.70;;
65896;SDS011;52677;50.898;10.854;2022-09-21T04:13:50;2.58;;;1.85;;
65896;SDS011;52677;50.898;10.854;2022-09-21T04:15:57;1.50;;;1.40;;
65896;SDS011;52677;50.898;10.854;2022-09-21T04:17:57;2.72;;;1.73;;
65896;SDS011;52677;50.898;10.854;2022-09-21T04:19:58;3.67;;;1.83;;
65896;SDS011;52677;50.898;10.854;2022-09-21T04:21:59;4.10;;;1.75;;
65896;SDS011;52677;50.898;10.854;2022-09-21T04:23:59;1.98;;;1.50;;
65896;SDS011;52677;50.898;10.854;2022-09-21T04:26:00;3.63;;;1.42;;
65896;SDS011;52677;50.898;10.854;2022-09-21T04:28:01;2.22;;;1.80;;
65896;SDS011;52677;50.898;10.854;2022-09-21T04:30:02;4.32;;;1.60;;
65896;SDS011;52677;50.898;10.854;2022-09-21T04:32:03;4.55;;;2.00;;
65896;SDS011;52677;50.898;10.854;2022-09-21T04:34:04;3.20;;;1.88;;
65896;SDS011;52677;50.898;10.854;2022-09-21T04:36:04;3.63;;;1.80;;
65896;SDS011;52677;50.898;10.854;2022-09-21T04:38:05;6.07;;;1.80;;
65896;SDS011;52677;50.898;10.854;2022-09-21T04:40:06;3.67;;;1.83;;
65896;SDS011;52677;50.898;10.854;2022-09-21T04:42:07;2.88;;;1.80;;
65896;SDS011;52677;50.898;10.854;2022-09-21T04:44:08;6.45;;;2.10;;
65896;SDS011;52677;50.898;10.854;2022-09-21T04:46:10;3.20;;;2.05;;
65896;SDS011;52677;50.898;10.854;2022-09-21T04:48:12;3.45;;;1.80;;
65896;SDS011;52677;50.898;10.854;2022-09-21T04:50:13;2.30;;;1.92;;
65896;SDS011;52677;50.898;10.854;2022-09-21T04:52:14;4.30;;;2.33;;
65896;SDS011;52677;50.898;10.854;2022-09-21T04:54:14;3.17;;;1.65;;
65896;SDS011;52677;50.898;10.854;2022-09-21T04:56:15;2.30;;;1.73;;
65896;SDS011;52677;50.898;10.854;2022-09-21T04:58:16;4.40;;;2.25;;
65896;SDS011;52677;50.898;10.854;2022-09-21T05:00:16;4.57;;;2.33;;
65896;SDS011;52677;50.898;10.854;2022-09-21T05:02:18;3.83;;;2.10;;
65896;SDS011;52677;50.898;10.854;2022-09-21T05:04:18;4.95;;;2.97;;
65896;SDS011;52677;50.898;10.854;2022-09-21T05:06:19;4.15;;;3.08;;
65896;SDS011;52677;50.898;10.854;2022-09-21T05:08:19;5.30;;;3.47;;
65896;SDS011;52677;50.898;10.854;2022-09-21T05:10:39;5.13;;;3.30;;
65896;SDS011;52677;50.898;10.854;2022-09-21T05:12:40;4.18;;;2.90;;
65896;SDS011;52677;50.898;10.854;2022-09-21T05:14:42;4.57;;;2.72;;
65896;SDS011;52677;50.898;10.854;2022-09-21T05:16:43;4.78;;;2.70;;
65896;SDS011;52677;50.898;10.854;2022-09-21T05:18:44;4.38;;;2.58;;
65896;SDS011;52677;50.898;10.854;2022-09-21T05:20:52;3.05;;;2.30;;
65896;SDS011;52677;50.898;10.854;2022-09-21T05:22:53;3.45;;;2.10;;
65896;SDS011;52677;50.898;10.854;2022-09-21T05:24:53;3.38;;;2.00;;
65896;SDS011;52677;50.898;10.854;2022-09-21T05:26:54;2.92;;;2.10;;
65896;SDS011;52677;50.898;10.854;2022-09-21T05:28:55;3.30;;;2.20;;
65896;SDS011;52677;50.898;10.854;2022-09-21T05:33:09;3.00;;;2.00;;
65896;SDS011;52677;50.898;10.854;2022-09-21T05:40:15;4.57;;;2.00;;
65896;SDS011;52677;50.898;10.854;2022-09-21T05:42:15;2.83;;;1.90;;
65896;SDS011;52677;50.898;10.854;2022-09-21T05:44:16;3.95;;;2.22;;
65896;SDS011;52677;50.898;10.854;2022-09-21T05:46:18;4.22;;;2.10;;
65896;SDS011;52677;50.898;10.854;2022-09-21T05:48:37;4.68;;;2.00;;
65896;SDS011;52677;50.898;10.854;2022-09-21T05:57:05;3.15;;;2.05;;
65896;SDS011;52677;50.898;10.854;2022-09-21T06:01:45;7.20;;;4.77;;
65896;SDS011;52677;50.898;10.854;2022-09-21T06:03:58;11.82;;;5.97;;
65896;SDS011;52677;50.898;10.854;2022-09-21T06:06:01;8.82;;;5.70;;
65896;SDS011;52677;50.898;10.854;2022-09-21T06:08:02;8.23;;;4.88;;
65896;SDS011;52677;50.898;10.854;2022-09-21T06:10:02;9.25;;;4.88;;
65896;SDS011;52677;50.898;10.854;2022-09-21T06:12:03;13.68;;;7.32;;
65896;SDS011;52677;50.898;10.854;2022-09-21T06:14:03;13.02;;;6.55;;
65896;SDS011;52677;50.898;10.854;2022-09-21T06:16:04;9.63;;;6.65;;
65896;SDS011;52677;50.898;10.854;2022-09-21T06:18:05;8.48;;;5.25;;
65896;SDS011;52677;50.898;10.854;2022-09-21T06:20:06;7.53;;;4.93;;
65896;SDS011;52677;50.898;10.854;2022-09-21T06:22:07;7.45;;;4.70;;
65896;SDS011;52677;50.898;10.854;2022-09-21T06:24:08;8.27;;;5.25;;
65896;SDS011;52677;50.898;10.854;2022-09-21T06:26:08;8.90;;;4.18;;
65896;SDS011;52677;50.898;10.854;2022-09-21T06:28:09;6.72;;;4.45;;
65896;SDS011;52677;50.898;10.854;2022-09-21T06:30:11;6.70;;;3.97;;
65896;SDS011;52677;50.898;10.854;2022-09-21T06:32:11;5.82;;;3.70;;
65896;SDS011;52677;50.898;10.854;2022-09-21T06:34:12;5.00;;;2.88;;
65896;SDS011;52677;50.898;10.854;2022-09-21T06:36:12;3.33;;;2.35;;
65896;SDS011;52677;50.898;10.854;2022-09-21T06:38:13;4.93;;;2.67;;
65896;SDS011;52677;50.898;10.854;2022-09-21T06:40:14;3.47;;;2.40;;
65896;SDS011;52677;50.898;10.854;2022-09-21T06:42:14;4.13;;;2.83;;
65896;SDS011;52677;50.898;10.854;2022-09-21T06:44:14;3.03;;;2.50;;
65896;SDS011;52677;50.898;10.854;2022-09-21T06:46:15;5.07;;;2.67;;
65896;SDS011;52677;50.898;10.854;2022-09-21T06:48:15;4.47;;;2.92;;
65896;SDS011;52677;50.898;10.854;2022-09-21T06:50:16;4.22;;;2.63;;
65896;SDS011;52677;50.898;10.854;2022-09-21T06:52:16;4.47;;;3.13;;
65896;SDS011;52677;50.898;10.854;2022-09-21T06:54:17;4.97;;;3.08;;
65896;SDS011;52677;50.898;10.854;2022-09-21T06:56:17;4.35;;;2.60;;
65896;SDS011;52677;50.898;10.854;2022-09-21T06:58:17;4.47;;;2.50;;
65896;SDS011;52677;50.898;10.854;2022-09-21T07:00:18;4.45;;;2.70;;
65896;SDS011;52677;50.898;10.854;2022-09-21T07:02:18;4.07;;;2.70;;
65896;SDS011;52677;50.898;10.854;2022-09-21T07:04:19;3.70;;;3.22;;
65896;SDS011;52677;50.898;10.854;2022-09-21T07:06:23;4.30;;;2.90;;
65896;SDS011;52677;50.898;10.854;2022-09-21T07:08:24;3.40;;;2.50;;
65896;SDS011;52677;50.898;10.854;2022-09-21T07:10:25;3.35;;;2.38;;
65896;SDS011;52677;50.898;10.854;2022-09-21T07:12:29;4.55;;;2.10;;
65896;SDS011;52677;50.898;10.854;2022-09-21T07:14:33;3.00;;;2.30;;
65896;SDS011;52677;50.898;10.854;2022-09-21T07:16:33;3.88;;;2.20;;
65896;SDS011;52677;50.898;10.854;2022-09-21T07:18:35;3.97;;;2.63;;
65896;SDS011;52677;50.898;10.854;2022-09-21T07:20:37;4.28;;;2.95;;
65896;SDS011;52677;50.898;10.854;2022-09-21T07:22:39;5.90;;;3.00;;
65896;SDS011;52677;50.898;10.854;2022-09-21T07:24:40;3.90;;;2.60;;
65896;SDS011;52677;50.898;10.854;2022-09-21T07:26:40;3.75;;;2.58;;
65896;SDS011;52677;50.898;10.854;2022-09-21T07:28:41;4.53;;;2.70;;
65896;SDS011;52677;50.898;10.854;2022-09-21T07:30:41;4.25;;;2.80;;
65896;SDS011;52677;50.898;10.854;2022-09-21T07:32:42;5.20;;;3.25;;
65896;SDS011;52677;50.898;10.854;2022-09-21T07:34:42;5.65;;;3.42;;
65896;SDS011;52677;50.898;10.854;2022-09-21T07:36:43;4.03;;;3.30;;
65896;SDS011;52677;50.898;10.854;2022-09-21T07:38:43;3.63;;;2.70;;
65896;SDS011;52677;50.898;10.854;2022-09-21T07:40:44;4.07;;;2.97;;
65896;SDS011;52677;50.898;10.854;2022-09-21T07:42:44;5.75;;;3.65;;
65896;SDS011;52677;50.898;10.854;2022-09-21T07:44:45;3.97;;;3.17;;
65896;SDS011;52677;50.898;10.854;2022-09-21T07:46:47;3.60;;;3.10;;
65896;SDS011;52677;50.898;10.854;2022-09-21T07:48:47;5.47;;;3.80;;
65896;SDS011;52677;50.898;10.854;2022-09-21T07:50:48;4.93;;;3.25;;
65896;SDS011;52677;50.898;10.854;2022-09-21T07:52:48;7.53;;;3.22;;
65896;SDS011;52677;50.898;10.854;2022-09-21T07:54:49;3.65;;;2.60;;
65896;SDS011;52677;50.898;10.854;2022-09-21T07:56:49;6.90;;;3.03;;
65896;SDS011;52677;50.898;10.854;2022-09-21T07:59:08;5.63;;;3.40;;
65896;SDS011;52677;50.898;10.854;2022-09-21T08:01:10;4.60;;;3.53;;
65896;SDS011;52677;50.898;10.854;2022-09-21T08:03:11;3.67;;;2.67;;
65896;SDS011;52677;50.898;10.854;2022-09-21T08:05:11;3.35;;;2.60;;
65896;SDS011;52677;50.898;10.854;2022-09-21T08:07:11;4.90;;;3.08;;
65896;SDS011;52677;50.898;10.854;2022-09-21T08:09:12;7.00;;;4.10;;
65896;SDS011;52677;50.898;10.854;2022-09-21T08:11:13;7.32;;;4.50;;
65896;SDS011;52677;50.898;10.854;2022-09-21T08:13:14;8.57;;;4.43;;
65896;SDS011;52677;50.898;10.854;2022-09-21T08:15:15;5.18;;;3.10;;
65896;SDS011;52677;50.898;10.854;2022-09-21T08:17:16;5.18;;;3.22;;
65896;SDS011;52677;50.898;10.854;2022-09-21T08:19:17;4.47;;;2.95;;
65896;SDS011;52677;50.898;10.854;2022-09-21T08:21:18;5.45;;;3.28;;
65896;SDS011;52677;50.898;10.854;2022-09-21T08:23:19;10.00;;;7.03;;
65896;SDS011;52677;50.898;10.854;2022-09-21T08:25:20;10.68;;;6.85;;
65896;SDS011;52677;50.898;10.854;2022-09-21T08:27:21;7.85;;;4.07;;
65896;SDS011;52677;50.898;10.854;2022-09-21T08:31:24;7.57;;;4.53;;
65896;SDS011;52677;50.898;10.854;2022-09-21T08:33:25;5.65;;;3.47;;
65896;SDS011;52677;50.898;10.854;2022-09-21T08:35:26;7.93;;;4.20;;
65896;SDS011;52677;50.898;10.854;2022-09-21T08:37:27;4.22;;;3.42;;
65896;SDS011;52677;50.898;10.854;2022-09-21T08:39:28;5.28;;;3.67;;
65896;SDS011;52677;50.898;10.854;2022-09-21T08:44:10;6.57;;;3.42;;
65896;SDS011;52677;50.898;10.854;2022-09-21T08:46:24;6.40;;;3.35;;
65896;SDS011;52677;50.898;10.854;2022-09-21T08:48:28;7.55;;;4.80;;
65896;SDS011;52677;50.898;10.854;2022-09-21T08:50:51;7.18;;;4.50;;
65896;SDS011;52677;50.898;10.854;2022-09-21T08:52:56;4.70;;;3.58;;
65896;SDS011;52677;50.898;10.854;2022-09-21T08:55:02;4.68;;;3.72;;
65896;SDS011;52677;50.898;10.854;2022-09-21T08:57:12;7.40;;;4.28;;
65896;SDS011;52677;50.898;10.854;2022-09-21T08:59:13;5.43;;;3.67;;
65896;SDS011;52677;50.898;10.854;2022-09-21T09:01:24;8.40;;;4.18;;
65896;SDS011;52677;50.898;10.854;2022-09-21T09:03:37;6.28;;;4.00;;
65896;SDS011;52677;50.898;10.854;2022-09-21T09:09:00;6.10;;;4.45;;
65896;SDS011;52677;50.898;10.854;2022-09-21T09:18:53;9.57;;;4.97;;
65896;SDS011;52677;50.898;10.854;2022-09-21T09:25:23;7.10;;;4.25;;
65896;SDS011;52677;50.898;10.854;2022-09-21T09:27:27;8.98;;;4.35;;
65896;SDS011;52677;50.898;10.854;2022-09-21T09:29:37;9.88;;;5.07;;
65896;SDS011;52677;50.898;10.854;2022-09-21T09:31:41;5.68;;;4.20;;
65896;SDS011;52677;50.898;10.854;2022-09-21T09:34:06;7.53;;;4.38;;
65896;SDS011;52677;50.898;10.854;2022-09-21T09:36:08;10.48;;;5.05;;
65896;SDS011;52677;50.898;10.854;2022-09-21T09:42:55;7.65;;;4.60;;
65896;SDS011;52677;50.898;10.854;2022-09-21T09:51:56;7.47;;;4.65;;
65896;SDS011;52677;50.898;10.854;2022-09-21T09:53:57;6.45;;;4.47;;
65896;SDS011;52677;50.898;10.854;2022-09-21T09:55:59;7.97;;;4.93;;
65896;SDS011;52677;50.898;10.854;2022-09-21T09:58:00;8.10;;;3.80;;
65896;SDS011;52677;50.898;10.854;2022-09-21T10:00:02;5.40;;;3.53;;
65896;SDS011;52677;50.898;10.854;2022-09-21T10:02:21;7.47;;;5.35;;
65896;SDS011;52677;50.898;10.854;2022-09-21T10:04:23;6.80;;;5.00;;
65896;SDS011;52677;50.898;10.854;2022-09-21T10:06:29;7.47;;;4.43;;
65896;SDS011;52677;50.898;10.854;2022-09-21T10:10:41;4.07;;;2.03;;
65896;SDS011;52677;50.898;10.854;2022-09-21T10:12:43;4.55;;;2.40;;
65896;SDS011;52677;50.898;10.854;2022-09-21T10:14:49;4.35;;;2.65;;
65896;SDS011;52677;50.898;10.854;2022-09-21T10:16:51;4.65;;;3.10;;
65896;SDS011;52677;50.898;10.854;2022-09-21T10:18:53;5.90;;;2.70;;
65896;SDS011;52677;50.898;10.854;2022-09-21T10:23:08;4.35;;;2.22;;
65896;SDS011;52677;50.898;10.854;2022-09-21T10:25:15;4.65;;;3.25;;
65896;SDS011;52677;50.898;10.854;2022-09-21T10:27:20;4.28;;;1.98;;
65896;SDS011;52677;50.898;10.854;2022-09-21T10:29:28;2.50;;;1.30;;
65896;SDS011;52677;50.898;10.854;2022-09-21T10:31:31;3.30;;;1.23;;
65896;SDS011;52677;50.898;10.854;2022-09-21T10:33:32;2.40;;;1.30;;
65896;SDS011;52677;50.898;10.854;2022-09-21T10:35:34;2.65;;;1.35;;
65896;SDS011;52677;50.898;10.854;2022-09-21T10:37:49;1.45;;;0.90;;
65896;SDS011;52677;50.898;10.854;2022-09-21T10:42:18;2.88;;;1.00;;
65896;SDS011;52677;50.898;10.854;2022-09-21T10:44:21;3.50;;;2.00;;
65896;SDS011;52677;50.898;10.854;2022-09-21T10:46:31;1.85;;;0.95;;
65896;SDS011;52677;50.898;10.854;2022-09-21T10:48:33;1.98;;;1.00;;
65896;SDS011;52677;50.898;10.854;2022-09-21T10:50:35;3.42;;;0.95;;
65896;SDS011;52677;50.898;10.854;2022-09-21T10:52:41;3.35;;;0.80;;
65896;SDS011;52677;50.898;10.854;2022-09-21T10:54:42;3.22;;;1.30;;
65896;SDS011;52677;50.898;10.854;2022-09-21T10:56:52;3.05;;;1.30;;
65896;SDS011;52677;50.898;10.854;2022-09-21T10:59:09;3.13;;;1.13;;
65896;SDS011;52677;50.898;10.854;2022-09-21T11:01:32;2.72;;;1.20;;
65896;SDS011;52677;50.898;10.854;2022-09-21T11:03:35;4.32;;;1.25;;
65896;SDS011;52677;50.898;10.854;2022-09-21T11:05:41;1.65;;;0.98;;
65896;SDS011;52677;50.898;10.854;2022-09-21T11:07:53;3.00;;;1.10;;
65896;SDS011;52677;50.898;10.854;2022-09-21T11:17:06;3.33;;;1.00;;
65896;SDS011;52677;50.898;10.854;2022-09-21T11:19:18;3.00;;;1.00;;
65896;SDS011;52677;50.898;10.854;2022-09-21T11:26:09;3.53;;;1.00;;
65896;SDS011;52677;50.898;10.854;2022-09-21T11:29:11;2.75;;;0.90;;
65896;SDS011;52677;50.898;10.854;2022-09-21T11:31:05;2.97;;;1.30;;
65896;SDS011;52677;50.898;10.854;2022-09-21T11:45:46;2.83;;;1.00;;
65896;SDS011;52677;50.898;10.854;2022-09-21T11:48:09;1.90;;;1.20;;
65896;SDS011;52677;50.898;10.854;2022-09-21T11:57:38;3.38;;;0.93;;
65896;SDS011;52677;50.898;10.854;2022-09-21T12:00:08;2.13;;;1.00;;
65896;SDS011;52677;50.898;10.854;2022-09-21T12:02:26;2.97;;;0.93;;
65896;SDS011;52677;50.898;10.854;2022-09-21T12:05:19;2.55;;;1.13;;
65896;SDS011;52677;50.898;10.854;2022-09-21T12:07:15;3.53;;;1.20;;
65896;SDS011;52677;50.898;10.854;2022-09-21T12:21:19;1.52;;;1.00;;
65896;SDS011;52677;50.898;10.854;2022-09-21T12:23:26;2.20;;;1.42;;
65896;SDS011;52677;50.898;10.854;2022-09-21T12:25:32;3.08;;;1.35;;
65896;SDS011;52677;50.898;10.854;2022-09-21T12:27:42;2.80;;;1.02;;
65896;SDS011;52677;50.898;10.854;2022-09-21T12:29:49;2.25;;;1.00;;
65896;SDS011;52677;50.898;10.854;2022-09-21T12:31:57;6.25;;;1.88;;
65896;SDS011;52677;50.898;10.854;2022-09-21T12:34:02;4.03;;;1.20;;
65896;SDS011;52677;50.898;10.854;2022-09-21T12:36:10;2.22;;;1.00;;
65896;SDS011;52677;50.898;10.854;2022-09-21T12:40:21;4.30;;;1.38;;
65896;SDS011;52677;50.898;10.854;2022-09-21T12:47:04;2.28;;;0.93;;
65896;SDS011;52677;50.898;10.854;2022-09-21T12:49:13;4.47;;;1.05;;
65896;SDS011;52677;50.898;10.854;2022-09-21T12:51:19;4.05;;;1.00;;
65896;SDS011;52677;50.898;10.854;2022-09-21T12:53:29;4.57;;;3.60;;
65896;SDS011;52677;50.898;10.854;2022-09-21T12:55:53;2.33;;;1.77;;
65896;SDS011;52677;50.898;10.854;2022-09-21T13:00:05;3.60;;;1.33;;
65896;SDS011;52677;50.898;10.854;2022-09-21T13:02:18;2.47;;;1.30;;
65896;SDS011;52677;50.898;10.854;2022-09-21T13:04:39;3.17;;;1.10;;
65896;SDS011;52677;50.898;10.854;2022-09-21T13:09:11;3.20;;;1.25;;
65896;SDS011;52677;50.898;10.854;2022-09-21T13:11:15;2.63;;;1.10;;
65896;SDS011;52677;50.898;10.854;2022-09-21T13:15:40;3.78;;;1.20;;
65896;SDS011;52677;50.898;10.854;2022-09-21T13:17:43;2.83;;;1.25;;
65896;SDS011;52677;50.898;10.854;2022-09-21T13:19:44;2.25;;;1.02;;
65896;SDS011;52677;50.898;10.854;2022-09-21T13:22:09;4.43;;;1.15;;
65896;SDS011;52677;50.898;10.854;2022-09-21T13:24:24;4.57;;;1.10;;
65896;SDS011;52677;50.898;10.854;2022-09-21T13:30:41;1.20;;;1.00;;
65896;SDS011;52677;50.898;10.854;2022-09-21T13:32:49;1.42;;;0.82;;
65896;SDS011;52677;50.898;10.854;2022-09-21T13:34:51;3.40;;;1.10;;
65896;SDS011;52677;50.898;10.854;2022-09-21T13:39:14;2.92;;;0.93;;
65896;SDS011;52677;50.898;10.854;2022-09-21T13:43:17;2.40;;;1.05;;
65896;SDS011;52677;50.898;10.854;2022-09-21T13:49:41;1.23;;;0.80;;
65896;SDS011;52677;50.898;10.854;2022-09-21T13:53:59;4.03;;;1.15;;
65896;SDS011;52677;50.898;10.854;2022-09-21T13:56:13;3.65;;;1.13;;
65896;SDS011;52677;50.898;10.854;2022-09-21T13:58:26;3.35;;;1.10;;
65896;SDS011;52677;50.898;10.854;2022-09-21T14:02:35;3.72;;;1.00;;
65896;SDS011;52677;50.898;10.854;2022-09-21T14:04:37;3.75;;;1.05;;
65896;SDS011;52677;50.898;10.854;2022-09-21T14:06:41;2.40;;;1.02;;
65896;SDS011;52677;50.898;10.854;2022-09-21T14:13:00;3.13;;;1.23;;
65896;SDS011;52677;50.898;10.854;2022-09-21T14:21:35;2.70;;;1.20;;
65896;SDS011;52677;50.898;10.854;2022-09-21T14:23:36;3.90;;;1.10;;
65896;SDS011;52677;50.898;10.854;2022-09-21T14:27:57;2.75;;;1.20;;
65896;SDS011;52677;50.898;10.854;2022-09-21T14:30:19;2.05;;;0.90;;
65896;SDS011;52677;50.898;10.854;2022-09-21T14:32:25;1.83;;;0.98;;
65896;SDS011;52677;50.898;10.854;2022-09-21T14:34:30;5.55;;;1.70;;
65896;SDS011;52677;50.898;10.854;2022-09-21T14:36:42;5.25;;;0.82;;
65896;SDS011;52677;50.898;10.854;2022-09-21T14:38:47;1.98;;;0.90;;
65896;SDS011;52677;50.898;10.854;2022-09-21T14:40:53;3.53;;;1.20;;
65896;SDS011;52677;50.898;10.854;2022-09-21T14:42:59;3.60;;;1.00;;
65896;SDS011;52677;50.898;10.854;2022-09-21T14:45:02;3.15;;;1.00;;
65896;SDS011;52677;50.898;10.854;2022-09-21T14:47:06;3.42;;;1.20;;
65896;SDS011;52677;50.898;10.854;2022-09-21T14:54:17;2.20;;;1.20;;
65896;SDS011;52677;50.898;10.854;2022-09-21T14:59:05;2.28;;;0.95;;
65896;SDS011;52677;50.898;10.854;2022-09-21T15:11:42;2.92;;;0.90;;
65896;SDS011;52677;50.898;10.854;2022-09-21T15:18:21;5.63;;;2.13;;
65896;SDS011;52677;50.898;10.854;2022-09-21T15:20:25;13.20;;;7.20;;
65896;SDS011;52677;50.898;10.854;2022-09-21T15:22:27;11.55;;;5.65;;
65896;SDS011;52677;50.898;10.854;2022-09-21T15:24:31;5.65;;;2.22;;
65896;SDS011;52677;50.898;10.854;2022-09-21T15:26:33;2.47;;;1.00;;
65896;SDS011;52677;50.898;10.854;2022-09-21T15:28:37;2.00;;;0.70;;
65896;SDS011;52677;50.898;10.854;2022-09-21T15:30:42;2.25;;;0.80;;